Time;durP1;ratioP1;P1;durP2;ratioP2;P2;SDS_P1;SDS_P2;PMS_P1;PMS_P2;Temp;Humidity;BMP_temperature;BMP_pressure;BME280_temperature;BME280_humidity;BME280_pressure;Samples;Min_cycle;Max_cycle;Signal;HPM_P1;HPM_P2
2023/01/10 00:01:13;;;;;;;;;;;;;;;9.05;57.54;98453.88;5092668;28;19923;-72
2023/01/10 00:03:39;;;;;;;;;;;;;;;9.04;57.96;98454.84;5092516;28;19916;-71
2023/01/10 00:06:04;;;;;;;;;;;;;;;9.04;57.98;98447.03;5074496;28;20344;-71
2023/01/10 00:08:29;;;;;;;;;;;;;;;9.05;57.73;98453.06;5057745;28;20076;-72
2023/01/10 00:10:55;;;;;;;;;;;;;;;9.05;57.90;98456.47;5092905;28;19916;-71
2023/01/10 00:13:23;;;;;;;;;;;;;;;9.05;57.62;98445.25;5077121;28;20034;-73
2023/01/10 00:15:49;;;;;;;;;;;;;;;9.05;58.00;98448.66;5077929;28;19931;-72
2023/01/10 00:18:14;;;;;;;;;;;;;;;9.07;58.20;98445.94;5078896;28;20369;-72
2023/01/10 00:20:40;;;;;;;;;;;;;;;9.05;57.96;98443.47;5061639;28;19919;-72
2023/01/10 00:23:05;;;;;;;;;;;;;;;9.06;58.08;98431.25;5078152;28;20302;-71
2023/01/10 00:25:33;;;;;;;;;;;;;;;9.07;57.86;98435.53;5061270;28;19920;-72
2023/01/10 00:28:18;;;;;;;;;;;;;;;9.07;57.82;98432.94;5061855;28;19916;-72
2023/01/10 00:30:46;;;;;;;;;;;;;;;9.07;57.81;98424.28;5081849;28;19916;-72
2023/01/10 00:33:18;;;;;;;;;;;;;;;9.07;58.18;98429.50;5078184;28;20354;-72
2023/01/10 00:35:43;;;;;;;;;;;;;;;9.08;58.37;98426.78;5062183;28;19916;-71
2023/01/10 00:38:09;;;;;;;;;;;;;;;9.06;58.00;98423.44;5061659;28;19916;-72
2023/01/10 00:40:34;;;;;;;;;;;;;;;9.08;58.31;98425.94;5096194;28;20379;-72
2023/01/10 00:45:44;;;;;;;;;;;;;;;9.07;58.12;98425.13;5080624;28;20026;-71
2023/01/10 00:48:09;;;;;;;;;;;;;;;9.07;58.06;98417.31;5076860;28;19963;-72
2023/01/10 00:50:35;;;;;;;;;;;;;;;9.08;58.12;98403.34;5078193;28;20268;-72
2023/01/10 00:53:00;;;;;;;;;;;;;;;9.08;58.08;98412.91;5060935;28;19923;-72
2023/01/10 00:55:25;;;;;;;;;;;;;;;9.08;58.43;98400.75;5060909;28;19924;-72
2023/01/10 00:57:50;;;;;;;;;;;;;;;9.09;58.60;98396.38;5060935;28;20002;-72
2023/01/10 01:00:16;;;;;;;;;;;;;;;9.10;58.54;98392.81;5077660;28;20283;-72
2023/01/10 01:02:41;;;;;;;;;;;;;;;9.09;58.31;98391.16;5077777;28;20378;-72
2023/01/10 01:05:07;;;;;;;;;;;;;;;9.10;58.33;98387.63;5060906;28;20291;-72
2023/01/10 01:07:32;;;;;;;;;;;;;;;9.09;58.39;98381.56;5094055;28;19916;-71
2023/01/10 01:12:41;;;;;;;;;;;;;;;9.10;58.64;98380.63;5080189;28;19973;-72
2023/01/10 01:15:07;;;;;;;;;;;;;;;9.12;58.65;98380.50;5095600;28;19979;-72
2023/01/10 01:17:32;;;;;;;;;;;;;;;9.11;58.47;98355.41;5077080;28;20333;-71
2023/01/10 01:19:57;;;;;;;;;;;;;;;9.12;58.77;98365.69;5060491;28;20437;-71
2023/01/10 01:22:22;;;;;;;;;;;;;;;9.11;58.74;98361.47;5060228;28;19916;-72
2023/01/10 01:24:48;;;;;;;;;;;;;;;9.12;58.64;98368.31;5075782;28;19971;-72
2023/01/10 01:27:13;;;;;;;;;;;;;;;9.13;58.73;98377.78;5076954;28;20011;-72
2023/01/10 01:29:38;;;;;;;;;;;;;;;9.12;58.89;98365.69;5060157;28;19916;-71
2023/01/10 01:32:04;;;;;;;;;;;;;;;9.11;58.91;98369.28;5076950;28;19954;-72
2023/01/10 01:34:29;;;;;;;;;;;;;;;9.12;58.77;98349.25;5095010;28;20375;-71
2023/01/10 01:36:55;;;;;;;;;;;;;;;9.11;58.93;98353.66;5077064;28;20003;-71
2023/01/10 01:39:21;;;;;;;;;;;;;;;9.11;59.08;98360.59;5076813;28;19973;-72
2023/01/10 01:41:59;;;;;;;;;;;;;;;9.09;59.03;98352.09;5077154;28;19915;-72
2023/01/10 01:44:35;;;;;;;;;;;;;;;9.09;59.05;98347.72;5095529;28;19916;-71
2023/01/10 01:47:07;;;;;;;;;;;;;;;9.07;58.88;98344.41;5060377;28;19924;-71
2023/01/10 01:49:37;;;;;;;;;;;;;;;9.07;58.95;98333.97;5077016;28;20378;-72
2023/01/10 01:52:04;;;;;;;;;;;;;;;9.07;59.03;98339.19;5076673;28;19923;-72
2023/01/10 01:54:30;;;;;;;;;;;;;;;9.06;58.85;98350.53;5059341;28;20309;-72
2023/01/10 01:56:57;;;;;;;;;;;;;;;9.07;59.04;98347.00;5076921;28;19917;-72
2023/01/10 01:59:27;;;;;;;;;;;;;;;9.08;59.14;98342.63;5059784;28;19959;-72
2023/01/10 02:01:53;;;;;;;;;;;;;;;9.07;58.99;98336.59;5059516;28;19916;-72
2023/01/10 02:04:19;;;;;;;;;;;;;;;9.08;59.01;98321.78;5059410;28;19920;-72
2023/01/10 02:06:45;;;;;;;;;;;;;;;9.08;59.43;98330.44;5059302;28;19916;-72
2023/01/10 02:09:13;;;;;;;;;;;;;;;9.09;59.05;98323.44;5076203;28;19959;-72
2023/01/10 02:11:38;;;;;;;;;;;;;;;9.10;59.27;98317.31;5094192;28;19920;-72
2023/01/10 02:14:04;;;;;;;;;;;;;;;9.10;59.39;98302.50;5076375;28;20440;-72
2023/01/10 02:16:30;;;;;;;;;;;;;;;9.12;59.04;98318.84;5075887;28;19920;-72
2023/01/10 02:18:56;;;;;;;;;;;;;;;9.11;59.68;98317.19;5059587;28;20371;-72
2023/01/10 02:21:32;;;;;;;;;;;;;;;9.12;59.36;98321.44;5076304;28;19973;-72
2023/01/10 02:23:57;;;;;;;;;;;;;;;9.13;59.27;98315.28;5076077;28;20421;-72
2023/01/10 02:26:31;;;;;;;;;;;;;;;9.14;59.50;98309.16;5094112;28;19920;-72
2023/01/10 02:29:11;;;;;;;;;;;;;;;9.16;59.55;98298.63;5093959;28;19916;-72
2023/01/10 02:31:49;;;;;;;;;;;;;;;9.16;59.53;98294.22;5094022;28;19939;-72
2023/01/10 02:34:34;;;;;;;;;;;;;;;9.16;59.39;98289.00;5075788;28;20397;-72
2023/01/10 02:36:59;;;;;;;;;;;;;;;9.17;59.40;98280.28;5011556;28;19976;-73
2023/01/10 02:39:25;;;;;;;;;;;;;;;9.17;59.47;98269.84;5011946;28;20027;-73
2023/01/10 02:41:51;;;;;;;;;;;;;;;9.17;59.44;98264.63;5011839;28;19917;-73
2023/01/10 02:44:39;;;;;;;;;;;;;;;9.18;59.33;98268.88;4995309;28;19917;-73
2023/01/10 02:47:06;;;;;;;;;;;;;;;9.17;59.31;98275.06;4995112;28;19918;-73
2023/01/10 02:49:39;;;;;;;;;;;;;;;9.17;59.47;98282.88;4978935;28;20471;-73
2023/01/10 02:52:05;;;;;;;;;;;;;;;9.17;59.72;98280.28;4995008;28;19918;-73
2023/01/10 02:54:30;;;;;;;;;;;;;;;9.17;59.69;98277.66;4994588;28;20010;-73
2023/01/10 02:56:55;;;;;;;;;;;;;;;9.19;59.75;98267.13;4994993;28;19940;-73
2023/01/10 02:59:21;;;;;;;;;;;;;;;9.19;59.52;98261.91;5011322;28;19929;-74
2023/01/10 03:02:04;;;;;;;;;;;;;;;9.19;59.76;98265.34;4994292;28;19918;-74
2023/01/10 03:04:30;;;;;;;;;;;;;;;9.21;59.80;98260.00;4994195;28;19921;-74
2023/01/10 03:06:55;;;;;;;;;;;;;;;9.20;59.75;98251.38;5011474;28;20551;-73
2023/01/10 03:09:40;;;;;;;;;;;;;;;9.22;59.55;98259.91;4994899;28;19925;-73
2023/01/10 03:12:16;;;;;;;;;;;;;;;9.21;59.69;98255.63;4953333;29;19926;-73
2023/01/10 03:14:41;;;;;;;;;;;;;;;9.23;59.56;98255.50;5012307;28;19917;-73
2023/01/10 03:17:08;;;;;;;;;;;;;;;9.23;59.38;98258.09;5014209;28;20015;-72
2023/01/10 03:19:34;;;;;;;;;;;;;;;9.23;59.24;98251.16;5014420;28;19921;-72
2023/01/10 03:22:00;;;;;;;;;;;;;;;9.22;59.66;98244.28;4997876;28;19925;-72
2023/01/10 03:24:27;;;;;;;;;;;;;;;9.23;59.50;98230.31;4997807;28;20312;-73
2023/01/10 03:26:54;;;;;;;;;;;;;;;9.24;59.40;98225.91;5014226;28;19971;-73
2023/01/10 03:29:31;;;;;;;;;;;;;;;9.23;59.56;98219.88;4997716;28;19956;-73
2023/01/10 03:31:58;;;;;;;;;;;;;;;9.23;59.55;98225.09;4997915;28;19917;-73
2023/01/10 03:34:23;;;;;;;;;;;;;;;9.24;59.35;98221.53;4997769;28;20403;-73
2023/01/10 03:36:51;;;;;;;;;;;;;;;9.26;59.41;98220.59;5014206;28;19929;-73
2023/01/10 03:39:21;;;;;;;;;;;;;;;9.27;59.52;98230.06;5014104;28;19923;-73
2023/01/10 03:41:48;;;;;;;;;;;;;;;9.27;59.78;98219.66;5014082;28;19918;-73
2023/01/10 03:44:45;;;;;;;;;;;;;;;9.28;59.59;98216.91;4997560;28;19948;-73
2023/01/10 03:47:29;;;;;;;;;;;;;;;9.30;59.49;98220.22;5015882;28;20478;-73
2023/01/10 03:49:55;;;;;;;;;;;;;;;9.28;59.49;98224.72;5080619;28;20379;-73
2023/01/10 03:52:21;;;;;;;;;;;;;;;9.32;59.39;98230.53;5057986;28;19981;-73
2023/01/10 03:54:46;;;;;;;;;;;;;;;9.31;59.70;98228.84;5074752;28;20404;-73
2023/01/10 03:57:21;;;;;;;;;;;;;;;9.31;59.49;98231.47;5074659;28;19923;-73
2023/01/10 03:59:47;;;;;;;;;;;;;;;9.32;59.42;98218.31;5057837;28;19916;-73
2023/01/10 04:02:12;;;;;;;;;;;;;;;9.31;59.68;98221.88;5073768;28;19923;-73
2023/01/10 04:04:37;;;;;;;;;;;;;;;9.31;59.65;98214.06;5074439;28;20035;-72
2023/01/10 04:07:03;;;;;;;;;;;;;;;9.31;59.47;98215.84;5074476;28;20020;-73
2023/01/10 04:09:28;;;;;;;;;;;;;;;9.32;59.51;98227.91;5057775;28;19920;-73
2023/01/10 04:11:53;;;;;;;;;;;;;;;9.31;59.63;98206.22;5057681;28;20045;-72
2023/01/10 04:14:19;;;;;;;;;;;;;;;9.32;59.49;98204.47;5058071;28;19916;-72
2023/01/10 04:16:44;;;;;;;;;;;;;;;9.32;59.73;98200.09;5073775;28;20345;-73
2023/01/10 04:19:09;;;;;;;;;;;;;;;9.32;59.55;98210.50;5057627;28;19920;-72
2023/01/10 04:21:34;;;;;;;;;;;;;;;9.34;59.44;98215.59;5073377;28;19996;-71
2023/01/10 04:24:00;;;;;;;;;;;;;;;9.33;60.06;98206.13;5074227;28;19916;-72
2023/01/10 04:26:25;;;;;;;;;;;;;;;9.34;59.58;98210.38;5056986;28;19916;-72
2023/01/10 04:28:50;;;;;;;;;;;;;;;9.34;59.78;98205.19;5074291;28;19916;-72
2023/01/10 04:31:16;;;;;;;;;;;;;;;9.36;59.63;98200.66;5057620;28;19923;-73
2023/01/10 04:33:41;;;;;;;;;;;;;;;9.37;59.60;98216.16;5074274;28;20000;-74
2023/01/10 04:36:06;;;;;;;;;;;;;;;9.37;59.91;98213.56;5057089;28;20364;-72
2023/01/10 04:38:32;;;;;;;;;;;;;;;9.39;59.92;98205.63;5057239;28;19916;-70
2023/01/10 04:40:57;;;;;;;;;;;;;;;9.40;59.73;98194.25;5057280;28;19923;-72
2023/01/10 04:43:23;;;;;;;;;;;;;;;9.40;59.81;98189.88;5057505;28;20409;-72
2023/01/10 04:45:48;;;;;;;;;;;;;;;9.42;59.79;98176.72;5057191;28;20551;-74
2023/01/10 04:48:13;;;;;;;;;;;;;;;9.43;59.79;98178.41;5056807;28;19923;-72
2023/01/10 04:50:39;;;;;;;;;;;;;;;9.47;59.81;98171.16;5057144;28;19924;-72
2023/01/10 04:53:04;;;;;;;;;;;;;;;9.48;59.86;98178.03;5074070;28;19963;-73
2023/01/10 04:55:31;;;;;;;;;;;;;;;9.49;59.80;98180.50;5073453;28;20327;-72
2023/01/10 04:57:56;;;;;;;;;;;;;;;9.50;59.93;98182.13;5074597;28;19916;-71
2023/01/10 05:00:21;;;;;;;;;;;;;;;9.51;59.75;98188.19;5077407;28;20379;-73
2023/01/10 05:02:47;;;;;;;;;;;;;;;9.52;59.75;98185.47;5077612;28;20419;-70
2023/01/10 05:05:12;;;;;;;;;;;;;;;9.53;59.88;98183.69;5077512;28;19923;-69
2023/01/10 05:07:37;;;;;;;;;;;;;;;9.54;59.84;98186.16;5077216;28;19916;-69
2023/01/10 05:10:03;;;;;;;;;;;;;;;9.51;59.91;98178.59;5077403;28;20060;-69
2023/01/10 05:12:29;;;;;;;;;;;;;;;9.56;59.98;98186.03;5077113;28;19920;-69
2023/01/10 05:14:54;;;;;;;;;;;;;;;9.57;60.01;98179.88;5077378;28;20268;-71
2023/01/10 05:17:19;;;;;;;;;;;;;;;9.59;59.93;98178.78;5095683;28;19978;-71
2023/01/10 05:19:45;;;;;;;;;;;;;;;9.62;59.75;98179.53;5077247;28;19985;-69
2023/01/10 05:22:10;;;;;;;;;;;;;;;9.63;59.65;98191.56;5077197;28;20460;-70
2023/01/10 05:24:35;;;;;;;;;;;;;;;9.64;59.85;98188.03;5095264;28;19916;-70
2023/01/10 05:27:01;;;;;;;;;;;;;;;9.67;59.88;98185.19;5076960;28;20287;-70
2023/01/10 05:29:26;;;;;;;;;;;;;;;9.68;59.98;98184.22;5076606;28;19965;-69
2023/01/10 05:31:52;;;;;;;;;;;;;;;9.70;59.94;98177.94;5060135;28;19951;-70
2023/01/10 05:34:18;;;;;;;;;;;;;;;9.73;59.81;98195.09;5060453;28;19965;-70
2023/01/10 05:36:43;;;;;;;;;;;;;;;9.74;59.92;98165.47;5059678;28;19920;-70
2023/01/10 05:39:08;;;;;;;;;;;;;;;9.74;60.05;98173.28;5094990;28;19943;-70
2023/01/10 05:41:34;;;;;;;;;;;;;;;9.76;59.90;98163.59;5076707;28;19917;-71
2023/01/10 05:43:59;;;;;;;;;;;;;;;9.77;59.93;98175.63;5076615;28;19923;-69
2023/01/10 05:46:24;;;;;;;;;;;;;;;9.79;59.91;98178.97;5060103;28;20003;-70
2023/01/10 05:48:50;;;;;;;;;;;;;;;9.81;59.90;98171.03;5060001;28;19916;-71
2023/01/10 05:51:16;;;;;;;;;;;;;;;9.83;59.88;98187.34;5076726;28;20014;-69
2023/01/10 05:53:42;;;;;;;;;;;;;;;9.84;59.82;98174.19;5094543;28;20398;-70
2023/01/10 05:56:07;;;;;;;;;;;;;;;9.86;60.03;98177.50;5059613;28;20124;-70
2023/01/10 05:58:33;;;;;;;;;;;;;;;9.88;60.18;98172.16;5076636;28;20040;-69
2023/01/10 06:00:58;;;;;;;;;;;;;;;9.91;59.71;98179.72;5094838;28;19920;-70
2023/01/10 06:03:25;;;;;;;;;;;;;;;9.91;59.90;98170.13;5076684;28;19916;-69
2023/01/10 06:05:50;;;;;;;;;;;;;;;9.92;59.98;98171.78;5076797;28;19927;-70
2023/01/10 06:08:16;;;;;;;;;;;;;;;9.93;60.13;98167.38;5076609;28;19916;-69
2023/01/10 06:10:41;;;;;;;;;;;;;;;9.94;59.98;98169.03;5093757;28;19916;-70
2023/01/10 06:13:08;;;;;;;;;;;;;;;9.97;60.13;98163.56;5094824;28;20048;-69
2023/01/10 06:15:34;;;;;;;;;;;;;;;9.97;60.19;98160.97;5077190;28;19924;-70
2023/01/10 06:17:59;;;;;;;;;;;;;;;10.00;60.21;98159.91;5095631;28;19928;-69
2023/01/10 06:20:24;;;;;;;;;;;;;;;10.01;60.21;98151.09;5096366;28;19916;-70
2023/01/10 06:22:50;;;;;;;;;;;;;;;10.04;60.11;98146.47;5096455;28;20027;-69
2023/01/10 06:25:15;;;;;;;;;;;;;;;10.04;60.09;98136.06;5079386;28;19915;-70
2023/01/10 06:27:41;;;;;;;;;;;;;;;10.06;60.19;98149.78;5114546;28;20422;-69
2023/01/10 06:30:07;;;;;;;;;;;;;;;10.08;60.06;98140.03;5096674;28;19916;-69
2023/01/10 06:32:32;;;;;;;;;;;;;;;10.10;60.06;98148.56;5114322;28;20292;-69
2023/01/10 06:34:57;;;;;;;;;;;;;;;10.12;60.26;98159.69;5096207;28;19916;-70
2023/01/10 06:37:23;;;;;;;;;;;;;;;10.14;60.26;98157.78;5114382;28;19916;-70
2023/01/10 06:39:50;;;;;;;;;;;;;;;10.14;60.32;98149.13;5079206;28;19927;-70
2023/01/10 06:42:15;;;;;;;;;;;;;;;10.16;60.32;98147.22;5114304;28;19916;-69
2023/01/10 06:44:40;;;;;;;;;;;;;;;10.18;60.20;98154.91;5114191;28;19916;-71
2023/01/10 06:47:06;;;;;;;;;;;;;;;10.21;60.36;98149.44;5095578;28;20014;-69
2023/01/10 06:49:31;;;;;;;;;;;;;;;10.20;60.17;98143.41;5079298;28;19916;-70
2023/01/10 06:51:56;;;;;;;;;;;;;;;10.24;60.27;98151.78;5078904;28;20416;-70
2023/01/10 06:54:21;;;;;;;;;;;;;;;10.25;60.43;98141.22;5114001;28;19923;-69
2023/01/10 06:56:47;;;;;;;;;;;;;;;10.27;60.35;98141.91;5096114;28;19916;-70
2023/01/10 06:59:13;;;;;;;;;;;;;;;10.28;60.55;98145.38;5078936;28;20402;-72
2023/01/10 07:01:38;;;;;;;;;;;;;;;10.29;60.30;98153.06;5078753;28;19958;-70
2023/01/10 07:04:03;;;;;;;;;;;;;;;10.30;60.51;98143.47;5078539;28;19916;-70
2023/01/10 07:06:28;;;;;;;;;;;;;;;10.32;60.52;98150.22;5095188;28;19992;-70
2023/01/10 07:08:54;;;;;;;;;;;;;;;10.34;60.47;98144.03;5095589;28;19917;-69
2023/01/10 07:11:19;;;;;;;;;;;;;;;10.33;60.44;98138.00;5079070;28;19923;-70
2023/01/10 07:13:44;;;;;;;;;;;;;;;10.35;60.57;98151.75;5078561;28;19970;-70
2023/01/10 07:16:11;;;;;;;;;;;;;;;10.37;60.66;98143.78;5095806;28;19924;-70
2023/01/10 07:18:36;;;;;;;;;;;;;;;10.38;60.61;98140.22;5111902;28;19920;-70
2023/01/10 07:21:02;;;;;;;;;;;;;;;10.39;60.85;98141.88;5112374;28;20011;-70
2023/01/10 07:23:27;;;;;;;;;;;;;;;10.49;65.25;98132.31;5113659;28;19923;-68
2023/01/10 07:25:52;;;;;;;;;;;;;;;10.68;66.03;98134.16;5096016;28;20282;-69
2023/01/10 07:28:18;;;;;;;;;;;;;;;10.72;65.09;98138.19;5113576;28;19923;-68
2023/01/10 07:30:43;;;;;;;;;;;;;;;10.73;64.52;98141.59;5094917;28;19916;-69
2023/01/10 07:33:08;;;;;;;;;;;;;;;10.99;68.57;98139.31;5112066;28;20349;-70
2023/01/10 07:35:34;;;;;;;;;;;;;;;10.99;66.72;98134.94;5095187;28;20293;-68
2023/01/10 07:37:59;;;;;;;;;;;;;;;10.97;65.97;98134.22;5113119;28;19915;-70
2023/01/10 07:40:25;;;;;;;;;;;;;;;10.94;65.39;98124.06;5113603;28;19923;-68
2023/01/10 07:43:00;;;;;;;;;;;;;;;10.90;65.14;98120.06;5111745;28;19915;-69
2023/01/10 07:45:28;;;;;;;;;;;;;;;10.90;65.02;98121.88;5113226;28;19923;-69
2023/01/10 07:47:57;;;;;;;;;;;;;;;10.88;64.88;98118.53;5112199;28;19916;-68
2023/01/10 07:50:22;;;;;;;;;;;;;;;10.87;66.70;98120.34;5111900;28;19920;-72
2023/01/10 07:52:48;;;;;;;;;;;;;;;10.92;66.56;98114.72;5094874;28;19923;-73
2023/01/10 07:55:13;;;;;;;;;;;;;;;10.95;66.07;98117.06;5113598;28;19916;-71
2023/01/10 07:57:38;;;;;;;;;;;;;;;10.94;66.10;98108.41;5113053;28;19954;-72
2023/01/10 08:00:04;;;;;;;;;;;;;;;10.94;65.80;98111.03;5111480;28;20002;-71
2023/01/10 08:02:29;;;;;;;;;;;;;;;10.94;65.31;98111.03;5094873;28;20003;-72
2023/01/10 08:04:54;;;;;;;;;;;;;;;10.95;65.29;98101.41;5094929;28;19923;-72
2023/01/10 08:07:20;;;;;;;;;;;;;;;10.95;65.02;98099.59;5113088;28;19938;-70
2023/01/10 08:09:45;;;;;;;;;;;;;;;10.94;65.00;98092.75;5113023;28;20018;-72
2023/01/10 08:12:10;;;;;;;;;;;;;;;10.94;64.80;98095.34;5112227;28;20379;-71
2023/01/10 08:14:35;;;;;;;;;;;;;;;10.94;64.22;98097.97;5111563;28;19916;-71
2023/01/10 08:17:01;;;;;;;;;;;;;;;10.95;64.32;98093.56;5111595;28;19973;-73
2023/01/10 08:19:26;;;;;;;;;;;;;;;10.94;64.29;98089.28;5094389;28;19973;-73
2023/01/10 08:21:53;;;;;;;;;;;;;;;10.93;64.17;98083.25;5111356;28;20379;-73
2023/01/10 08:24:18;;;;;;;;;;;;;;;10.96;64.35;98084.75;5112642;28;19916;-75
2023/01/10 08:26:43;;;;;;;;;;;;;;;10.95;64.40;98083.94;5111808;28;19916;-76
2023/01/10 08:29:09;;;;;;;;;;;;;;;10.94;64.18;98084.91;5111531;28;19919;-72
2023/01/10 08:31:34;;;;;;;;;;;;;;;10.93;63.85;98075.41;5111699;28;19916;-72
2023/01/10 08:33:59;;;;;;;;;;;;;;;10.93;63.95;98072.81;5114465;28;19916;-72
2023/01/10 08:36:25;;;;;;;;;;;;;;;11.19;71.98;98070.47;5098378;28;19915;-69
2023/01/10 08:38:52;;;;;;;;;;;;;;;11.57;72.10;98066.22;5117006;28;20385;-74
2023/01/10 08:41:17;;;;;;;;;;;;;;;11.64;69.99;98065.63;5098544;28;19922;-72
2023/01/10 08:43:42;;;;;;;;;;;;;;;11.61;68.13;98061.53;5098651;28;19916;-77
2023/01/10 08:46:08;;;;;;;;;;;;;;;11.59;66.89;98061.66;5128441;23;19982;-81
2023/01/10 08:51:14;;;;;;;;;;;;;;;11.49;65.96;98045.16;5373157;22;19929;-77
2023/01/10 08:53:40;;;;;;;;;;;;;;;11.48;66.90;98046.13;5018137;28;19921;-75
2023/01/10 08:56:05;;;;;;;;;;;;;;;11.65;69.39;98062.88;5035551;28;20307;-76
2023/01/10 08:58:31;;;;;;;;;;;;;;;11.65;67.92;98055.03;5017220;28;20334;-75
2023/01/10 09:00:56;;;;;;;;;;;;;;;11.63;67.34;98048.31;5035856;28;19917;-77
2023/01/10 09:03:22;;;;;;;;;;;;;;;11.57;66.62;98049.69;5034197;28;19928;-78
2023/01/10 09:05:47;;;;;;;;;;;;;;;11.65;69.90;98026.28;5034503;28;20306;-72
2023/01/10 09:08:12;;;;;;;;;;;;;;;11.96;70.71;98020.03;5035824;28;20043;-73
2023/01/10 09:10:38;;;;;;;;;;;;;;;12.14;69.60;98005.22;5035526;28;19918;-78
2023/01/10 09:13:04;;;;;;;;;;;;;;;12.12;68.03;98004.53;5017896;28;19921;-76
2023/01/10 09:15:48;;;;;;;;;;;;;;;12.04;66.83;98005.25;5875093;22;19925;-78
2023/01/10 09:18:14;;;;;;;;;;;;;;;12.10;69.22;98006.50;5046689;28;19970;-80
2023/01/10 09:20:39;;;;;;;;;;;;;;;12.20;69.87;98004.63;5036868;28;20026;-83
2023/01/10 09:23:07;;;;;;;;;;;;;;;12.17;68.75;97998.88;5026832;28;19912;-78
2023/01/10 09:25:32;;;;;;;;;;;;;;;12.11;68.05;97985.41;5021095;28;19923;-81
2023/01/10 09:27:58;;;;;;;;;;;;;;;12.01;66.85;97987.25;5021032;28;19917;-80
2023/01/10 09:30:23;;;;;;;;;;;;;;;11.92;66.88;97970.63;5021245;28;19921;-80
2023/01/10 09:32:50;;;;;;;;;;;;;;;11.85;66.57;97953.81;5037442;28;19956;-87
2023/01/10 09:35:16;;;;;;;;;;;;;;;11.75;66.67;97947.84;5057067;28;19921;-78
